SWR444 LSZH-LSZB
Flight info
| Callsign | SWR444 |
|---|---|
| Flight time | 0h 17m |
| Altitude | 9000 |
| Route | VEBIT T544 WIL Z601 ROTOS |
| Aircraft | A320/M-SDE3FGHIRWY/LB1 |
Departure
| Time | 2026-05-06 14:58 |
|---|---|
| Airport | Zürich Airport (LSZH) |
Arrival
| Time | 2026-05-06 15:16 |
|---|---|
| Airport | Bern Airport (LSZB) |
| Time | Latitude | Longitude | Altitude | Speed | Heading |
|---|---|---|---|---|---|
| 2026-05-06 14:39 | 47.45358 | 8.55649 | 1397 ft | 0 kts | 6° |
| 2026-05-06 14:49 | 47.45335 | 8.55646 | 1408 ft | 4 kts | 5° |
| 2026-05-06 14:49 | 47.45308 | 8.55644 | 1406 ft | 4 kts | 359° |
| 2026-05-06 14:49 | 47.45282 | 8.55648 | 1400 ft | 4 kts | 333° |
| 2026-05-06 14:49 | 47.45269 | 8.55666 | 1404 ft | 1 kts | 276° |
| 2026-05-06 14:53 | 47.45279 | 8.55551 | 1397 ft | 20 kts | 283° |
| 2026-05-06 14:53 | 47.45344 | 8.55403 | 1399 ft | 14 kts | 327° |
| 2026-05-06 14:54 | 47.45425 | 8.55357 | 1397 ft | 10 kts | 334° |
| 2026-05-06 14:54 | 47.45507 | 8.55298 | 1404 ft | 17 kts | 334° |
| 2026-05-06 14:54 | 47.45618 | 8.55221 | 1403 ft | 17 kts | 335° |
| 2026-05-06 14:54 | 47.45680 | 8.55271 | 1400 ft | 11 kts | 95° |
| 2026-05-06 14:55 | 47.45670 | 8.55404 | 1397 ft | 16 kts | 96° |
| 2026-05-06 14:55 | 47.45659 | 8.55546 | 1401 ft | 15 kts | 96° |
| 2026-05-06 14:55 | 47.45643 | 8.55760 | 1397 ft | 23 kts | 96° |
| 2026-05-06 14:55 | 47.45627 | 8.55979 | 1398 ft | 22 kts | 95° |
| 2026-05-06 14:56 | 47.45611 | 8.56218 | 1323 ft | 23 kts | 97° |
| 2026-05-06 14:56 | 47.45595 | 8.56448 | 1398 ft | 23 kts | 96° |
| 2026-05-06 14:56 | 47.45579 | 8.56662 | 1401 ft | 22 kts | 96° |
| 2026-05-06 14:56 | 47.45561 | 8.56890 | 1399 ft | 22 kts | 96° |
| 2026-05-06 14:57 | 47.45590 | 8.57017 | 1403 ft | 9 kts | 12° |
| 2026-05-06 14:57 | 47.45667 | 8.57016 | 1412 ft | 14 kts | 320° |
| 2026-05-06 14:57 | 47.45668 | 8.56928 | 1409 ft | 6 kts | 263° |
| 2026-05-06 14:57 | 47.45670 | 8.56903 | 1406 ft | 0 kts | 278° |
| 2026-05-06 14:58 | 47.45679 | 8.56825 | 1411 ft | 28 kts | 277° |
| 2026-05-06 14:58 | 47.45729 | 8.56144 | 1401 ft | 102 kts | 276° |
| 2026-05-06 14:58 | 47.45830 | 8.54804 | 1416 ft | 155 kts | 277° |
| 2026-05-06 14:58 | 47.45941 | 8.53328 | 2114 ft | 137 kts | 277° |
| 2026-05-06 14:59 | 47.46049 | 8.51945 | 2593 ft | 141 kts | 275° |
| 2026-05-06 14:59 | 47.46154 | 8.50382 | 2770 ft | 164 kts | 275° |
| 2026-05-06 14:59 | 47.46257 | 8.48553 | 2893 ft | 195 kts | 268° |
| 2026-05-06 14:59 | 47.45729 | 8.46636 | 3178 ft | 217 kts | 226° |
| 2026-05-06 15:00 | 47.44524 | 8.45127 | 3582 ft | 237 kts | 220° |
| 2026-05-06 15:00 | 47.43264 | 8.43401 | 4054 ft | 256 kts | 229° |
| 2026-05-06 15:00 | 47.42131 | 8.41329 | 4907 ft | 261 kts | 234° |
| 2026-05-06 15:00 | 47.41058 | 8.39141 | 5813 ft | 265 kts | 235° |
| 2026-05-06 15:01 | 47.39990 | 8.36903 | 6689 ft | 268 kts | 234° |
| 2026-05-06 15:01 | 47.38908 | 8.34642 | 7545 ft | 271 kts | 235° |
| 2026-05-06 15:01 | 47.38057 | 8.32124 | 8409 ft | 276 kts | 244° |
| 2026-05-06 15:01 | 47.37255 | 8.29628 | 8805 ft | 279 kts | 242° |
| 2026-05-06 15:02 | 47.36366 | 8.27083 | 8828 ft | 278 kts | 240° |
| 2026-05-06 15:02 | 47.35457 | 8.24577 | 8829 ft | 277 kts | 240° |
| 2026-05-06 15:02 | 47.34554 | 8.22102 | 8833 ft | 278 kts | 240° |
| 2026-05-06 15:02 | 47.33644 | 8.19593 | 8833 ft | 278 kts | 240° |
| 2026-05-06 15:03 | 47.32746 | 8.17075 | 8831 ft | 278 kts | 242° |
| 2026-05-06 15:03 | 47.31912 | 8.14510 | 8833 ft | 278 kts | 243° |
| 2026-05-06 15:03 | 47.31103 | 8.11875 | 8832 ft | 278 kts | 244° |
| 2026-05-06 15:03 | 47.30322 | 8.09277 | 8831 ft | 278 kts | 244° |
| 2026-05-06 15:04 | 47.29540 | 8.06676 | 8861 ft | 283 kts | 244° |
| 2026-05-06 15:04 | 47.28746 | 8.04046 | 8826 ft | 279 kts | 244° |
| 2026-05-06 15:04 | 47.27953 | 8.01436 | 8825 ft | 279 kts | 244° |
| 2026-05-06 15:04 | 47.27153 | 7.98827 | 8823 ft | 279 kts | 243° |
| 2026-05-06 15:05 | 47.26356 | 7.96228 | 8828 ft | 279 kts | 243° |
| 2026-05-06 15:05 | 47.25557 | 7.93638 | 8828 ft | 279 kts | 243° |
| 2026-05-06 15:05 | 47.24751 | 7.91033 | 8830 ft | 279 kts | 243° |
| 2026-05-06 15:05 | 47.23945 | 7.88438 | 8829 ft | 279 kts | 243° |
| 2026-05-06 15:06 | 47.23138 | 7.85849 | 8829 ft | 279 kts | 243° |
| 2026-05-06 15:06 | 47.22331 | 7.83251 | 8831 ft | 279 kts | 243° |
| 2026-05-06 15:06 | 47.21522 | 7.80658 | 8857 ft | 280 kts | 245° |
| 2026-05-06 15:06 | 47.20712 | 7.78057 | 8855 ft | 279 kts | 243° |
| 2026-05-06 15:07 | 47.19904 | 7.75467 | 8859 ft | 277 kts | 243° |
| 2026-05-06 15:07 | 47.19100 | 7.72901 | 8860 ft | 277 kts | 242° |
| 2026-05-06 15:07 | 47.18152 | 7.70451 | 8856 ft | 276 kts | 238° |
| 2026-05-06 15:07 | 47.17175 | 7.68029 | 8732 ft | 275 kts | 238° |
| 2026-05-06 15:08 | 47.16200 | 7.65603 | 8604 ft | 275 kts | 238° |
| 2026-05-06 15:08 | 47.15230 | 7.63191 | 8472 ft | 274 kts | 238° |
| 2026-05-06 15:08 | 47.14263 | 7.60793 | 8343 ft | 273 kts | 238° |
| 2026-05-06 15:08 | 47.13297 | 7.58395 | 8214 ft | 273 kts | 238° |
| 2026-05-06 15:09 | 47.12448 | 7.55884 | 8039 ft | 275 kts | 249° |
| 2026-05-06 15:09 | 47.11978 | 7.53213 | 7586 ft | 272 kts | 256° |
| 2026-05-06 15:09 | 47.11558 | 7.50514 | 6913 ft | 270 kts | 256° |
| 2026-05-06 15:09 | 47.11141 | 7.47841 | 6290 ft | 268 kts | 256° |
| 2026-05-06 15:10 | 47.10732 | 7.45231 | 5954 ft | 252 kts | 256° |
| 2026-05-06 15:10 | 47.10356 | 7.42832 | 5814 ft | 231 kts | 256° |
| 2026-05-06 15:10 | 47.10005 | 7.40606 | 5603 ft | 217 kts | 256° |
| 2026-05-06 15:10 | 47.09643 | 7.38551 | 5467 ft | 199 kts | 248° |
| 2026-05-06 15:11 | 47.09020 | 7.36881 | 5332 ft | 177 kts | 233° |
| 2026-05-06 15:11 | 47.08472 | 7.35992 | 5036 ft | 173 kts | 223° |
| 2026-05-06 15:11 | 47.07499 | 7.35001 | 4532 ft | 174 kts | 211° |
| 2026-05-06 15:11 | 47.06406 | 7.34234 | 4103 ft | 175 kts | 198° |
| 2026-05-06 15:12 | 47.05205 | 7.34055 | 3994 ft | 176 kts | 177° |
| 2026-05-06 15:12 | 47.04126 | 7.34437 | 3995 ft | 180 kts | 159° |
| 2026-05-06 15:12 | 47.03073 | 7.35439 | 3997 ft | 182 kts | 142° |
| 2026-05-06 15:12 | 47.02102 | 7.36632 | 3997 ft | 182 kts | 142° |
| 2026-05-06 15:13 | 47.01131 | 7.37825 | 4000 ft | 182 kts | 142° |
| 2026-05-06 15:13 | 47.00160 | 7.39016 | 4003 ft | 182 kts | 142° |
| 2026-05-06 15:13 | 46.99189 | 7.40205 | 3999 ft | 178 kts | 141° |
| 2026-05-06 15:13 | 46.98290 | 7.41307 | 3903 ft | 162 kts | 141° |
| 2026-05-06 15:14 | 46.97451 | 7.42334 | 3674 ft | 154 kts | 142° |
| 2026-05-06 15:14 | 46.96641 | 7.43325 | 3405 ft | 150 kts | 141° |
| 2026-05-06 15:14 | 46.95846 | 7.44297 | 3125 ft | 148 kts | 140° |
| 2026-05-06 15:14 | 46.95059 | 7.45259 | 2852 ft | 147 kts | 140° |
| 2026-05-06 15:15 | 46.94279 | 7.46212 | 2573 ft | 146 kts | 140° |
| 2026-05-06 15:15 | 46.93495 | 7.47169 | 2354 ft | 147 kts | 141° |
| 2026-05-06 15:15 | 46.92708 | 7.48137 | 1995 ft | 149 kts | 141° |
| 2026-05-06 15:15 | 46.91923 | 7.49104 | 1691 ft | 144 kts | 141° |
| 2026-05-06 15:16 | 46.91298 | 7.49842 | 1684 ft | 72 kts | 141° |
| 2026-05-06 15:16 | 46.91106 | 7.50079 | 1718 ft | 27 kts | 139° |
| 2026-05-06 15:16 | 46.90963 | 7.50256 | 1729 ft | 28 kts | 140° |
| 2026-05-06 15:16 | 46.90815 | 7.50439 | 1731 ft | 25 kts | 139° |
| 2026-05-06 15:17 | 46.90731 | 7.50554 | 1732 ft | 1 kts | 168° |
| 2026-05-06 15:17 | 46.90734 | 7.50533 | 1730 ft | 5 kts | 302° |
| 2026-05-06 15:17 | 46.90801 | 7.50471 | 1730 ft | 18 kts | 321° |
| 2026-05-06 15:17 | 46.90927 | 7.50317 | 1732 ft | 29 kts | 319° |
| 2026-05-06 15:18 | 46.91096 | 7.50101 | 1730 ft | 33 kts | 321° |
| 2026-05-06 15:18 | 46.91227 | 7.49953 | 1692 ft | 10 kts | 352° |
| 2026-05-06 15:18 | 46.91278 | 7.50003 | 1684 ft | 8 kts | 57° |
| 2026-05-06 15:18 | 46.91303 | 7.50069 | 1731 ft | 6 kts | 62° |
| 2026-05-06 15:19 | 46.91309 | 7.50099 | 1728 ft | 0 kts | 95° |
| 2026-05-06 15:19 | 46.91309 | 7.50105 | 1728 ft | 1 kts | 94° |
| 2026-05-06 15:19 | 46.91308 | 7.50118 | 1726 ft | 1 kts | 94° |
| 2026-05-06 15:20 | 46.91307 | 7.50127 | 1726 ft | 0 kts | 94° |
| 2026-05-06 15:20 | 46.91309 | 7.50117 | 1726 ft | 0 kts | 91° |